Осколцемент

Карта отелей и гостиниц, располагающихся рядом с аэропортом Осколцемент :



Осколцемент Белгородская область 51° 15' 3.4884" N, 37° 46' 34.2408" E
Код аэродрома ИКАО: 
HJ1T
Код аэродрома RU: 
ХЙ1Т
Координаты: 
N51.25097° E037.77618°
Превышение над уровнем моря : 
218
Основная полоса: 
36R/18L
Курс магнитный: 
001,5/181,5
Длина основной ВПП: 
23
Ширина основной ВПП: 
23
Покрытие основной ВПП: 
Твёрдое
Тип: 
Вертодром
Освещение ВПП: 
Нет
Класс аэродрома: 
Статус: 
Действующий
Принадлежность: 
ГА
Сайт: 
E-mail аэродрома: 
Страна: 
Россия
Регион: 
Белгородская область
Город: 
Дополнительная информация: 
Групповая. Состоит из 3-х однотипных ПП с искусственным покрытием. Владелец ПП: нет данных.

Найти трансфер

С помощью этой формы Вы можете найти трансфер из аэропорта Осколцемент в город, аэропорт или вокзал:

Карта места

Javascript is required to view this map.

Погода в аэропортах:

Авиационная погода в Курске

Погода METAR: 
UUOK 041700Z 25009G14MPS 9999 -SHRA BKN033CB 13/08 Q1010 R12/CLRD65 NOSIG RMK QFE739/0986
Время наблюдения: 
2020-06-04T17:00:00Z
Температура C: 
13.0
Точка росы: 
8.0
Направление ветра: 
250
Скорость ветра: 
17
Метеорологическая видимость: 
6.21
Явления погоды: 
-SHRA
Условия полета: 
VFR
Аэропорт подробнее: 

Авиационная погода в Савонлинна

Регион: 
Погода METAR: 
EFSA 042250Z AUTO 09010KT 060V120 9999 -SHRA OVC004 13/12 Q0999
Время наблюдения: 
2020-06-04T22:50:00Z
Температура C: 
13.0
Точка росы: 
12.0
Направление ветра: 
90
Скорость ветра: 
10
Метеорологическая видимость: 
6.21
Явления погоды: 
-SHRA
Условия полета: 
LIFR

Авиационная погода в Куопио

Регион: 
Погода METAR: 
EFKU 042250Z AUTO 05009KT 010V080 9999 -SHRA OVC012 12/11 Q1001
Время наблюдения: 
2020-06-04T22:50:00Z
Температура C: 
12.0
Точка росы: 
11.0
Направление ветра: 
50
Скорость ветра: 
9
Метеорологическая видимость: 
6.21
Явления погоды: 
-SHRA
Условия полета: 
MVFR

Авиационная погода в Нижнем Новгороде

Регион: 
Погода METAR: 
UWGG 042300Z 00000MPS 5000 1000NE R18L/1800D BR NSC 11/11 Q1011 R18L/190060 TEMPO 0500 FG
Время наблюдения: 
2020-06-04T23:00:00Z
Температура C: 
11.0
Точка росы: 
11.0
Направление ветра: 
0
Скорость ветра: 
0
Метеорологическая видимость: 
3.11
Явления погоды: 
BR
Условия полета: 
MVFR